sensor_id;sensor_type;location;lat;lon;timestamp;P1;durP1;ratioP1;P2;durP2;ratioP2
51836;SDS011;38941;53.254;6.600;2023-03-03T00:00:08;66.00;;;9.63;;
51836;SDS011;38941;53.254;6.600;2023-03-03T00:02:09;68.75;;;8.93;;
51836;SDS011;38941;53.254;6.600;2023-03-03T00:04:10;141.25;;;10.88;;
51836;SDS011;38941;53.254;6.600;2023-03-03T00:06:12;92.30;;;9.70;;
51836;SDS011;38941;53.254;6.600;2023-03-03T00:08:14;66.15;;;9.20;;
51836;SDS011;38941;53.254;6.600;2023-03-03T00:10:14;88.22;;;9.32;;
51836;SDS011;38941;53.254;6.600;2023-03-03T00:12:26;114.55;;;9.95;;
51836;SDS011;38941;53.254;6.600;2023-03-03T00:14:29;63.17;;;8.63;;
51836;SDS011;38941;53.254;6.600;2023-03-03T00:16:38;101.93;;;9.07;;
51836;SDS011;38941;53.254;6.600;2023-03-03T00:18:41;82.03;;;9.15;;
51836;SDS011;38941;53.254;6.600;2023-03-03T00:20:47;94.90;;;8.80;;
51836;SDS011;38941;53.254;6.600;2023-03-03T00:22:52;110.45;;;9.35;;
51836;SDS011;38941;53.254;6.600;2023-03-03T00:24:53;101.15;;;9.05;;
51836;SDS011;38941;53.254;6.600;2023-03-03T00:26:56;127.65;;;10.18;;
51836;SDS011;38941;53.254;6.600;2023-03-03T00:29:01;120.68;;;9.55;;
51836;SDS011;38941;53.254;6.600;2023-03-03T00:31:38;124.93;;;9.57;;
51836;SDS011;38941;53.254;6.600;2023-03-03T00:33:45;118.28;;;10.57;;
51836;SDS011;38941;53.254;6.600;2023-03-03T00:35:55;92.22;;;9.27;;
51836;SDS011;38941;53.254;6.600;2023-03-03T00:37:57;75.68;;;8.55;;
51836;SDS011;38941;53.254;6.600;2023-03-03T00:42:41;76.22;;;8.85;;
51836;SDS011;38941;53.254;6.600;2023-03-03T00:44:58;92.20;;;9.30;;
51836;SDS011;38941;53.254;6.600;2023-03-03T00:49:37;76.05;;;8.60;;
51836;SDS011;38941;53.254;6.600;2023-03-03T00:51:41;101.47;;;8.45;;
51836;SDS011;38941;53.254;6.600;2023-03-03T00:53:44;96.68;;;8.10;;
51836;SDS011;38941;53.254;6.600;2023-03-03T00:55:46;96.53;;;9.10;;
51836;SDS011;38941;53.254;6.600;2023-03-03T00:57:49;130.80;;;7.85;;
51836;SDS011;38941;53.254;6.600;2023-03-03T00:59:49;41.20;;;6.00;;
51836;SDS011;38941;53.254;6.600;2023-03-03T01:01:51;128.55;;;8.43;;
51836;SDS011;38941;53.254;6.600;2023-03-03T01:03:53;93.10;;;8.68;;
51836;SDS011;38941;53.254;6.600;2023-03-03T01:05:54;89.00;;;6.63;;
51836;SDS011;38941;53.254;6.600;2023-03-03T01:07:54;124.47;;;7.57;;
51836;SDS011;38941;53.254;6.600;2023-03-03T01:09:55;106.22;;;7.80;;
51836;SDS011;38941;53.254;6.600;2023-03-03T01:11:57;58.83;;;5.90;;
51836;SDS011;38941;53.254;6.600;2023-03-03T01:13:58;43.22;;;6.90;;
51836;SDS011;38941;53.254;6.600;2023-03-03T01:15:59;89.85;;;6.78;;
51836;SDS011;38941;53.254;6.600;2023-03-03T01:18:01;49.35;;;5.88;;
51836;SDS011;38941;53.254;6.600;2023-03-03T01:20:03;120.20;;;7.75;;
51836;SDS011;38941;53.254;6.600;2023-03-03T01:22:05;112.35;;;7.60;;
51836;SDS011;38941;53.254;6.600;2023-03-03T01:24:06;80.78;;;7.38;;
51836;SDS011;38941;53.254;6.600;2023-03-03T01:26:06;89.22;;;6.70;;
51836;SDS011;38941;53.254;6.600;2023-03-03T01:28:07;53.30;;;5.07;;
51836;SDS011;38941;53.254;6.600;2023-03-03T01:30:08;51.85;;;5.28;;
51836;SDS011;38941;53.254;6.600;2023-03-03T01:32:09;61.95;;;6.88;;
51836;SDS011;38941;53.254;6.600;2023-03-03T01:34:11;82.47;;;6.13;;
51836;SDS011;38941;53.254;6.600;2023-03-03T01:36:13;43.72;;;4.93;;
51836;SDS011;38941;53.254;6.600;2023-03-03T01:38:15;40.95;;;5.53;;
51836;SDS011;38941;53.254;6.600;2023-03-03T01:40:19;60.80;;;5.65;;
51836;SDS011;38941;53.254;6.600;2023-03-03T01:42:23;84.90;;;6.20;;
51836;SDS011;38941;53.254;6.600;2023-03-03T01:44:28;53.15;;;5.78;;
51836;SDS011;38941;53.254;6.600;2023-03-03T01:48:48;47.63;;;5.47;;
51836;SDS011;38941;53.254;6.600;2023-03-03T01:50:51;89.38;;;6.65;;
51836;SDS011;38941;53.254;6.600;2023-03-03T01:52:58;94.90;;;6.40;;
51836;SDS011;38941;53.254;6.600;2023-03-03T01:55:02;57.05;;;5.95;;
51836;SDS011;38941;53.254;6.600;2023-03-03T01:57:12;63.53;;;5.72;;
51836;SDS011;38941;53.254;6.600;2023-03-03T01:59:17;39.05;;;4.40;;
51836;SDS011;38941;53.254;6.600;2023-03-03T02:01:23;45.28;;;5.10;;
51836;SDS011;38941;53.254;6.600;2023-03-03T02:03:27;42.63;;;4.57;;
51836;SDS011;38941;53.254;6.600;2023-03-03T02:05:30;43.70;;;4.65;;
51836;SDS011;38941;53.254;6.600;2023-03-03T02:07:31;61.97;;;6.00;;
51836;SDS011;38941;53.254;6.600;2023-03-03T02:12:19;15.80;;;4.18;;
51836;SDS011;38941;53.254;6.600;2023-03-03T02:14:25;18.35;;;4.00;;
51836;SDS011;38941;53.254;6.600;2023-03-03T02:16:25;14.80;;;4.45;;
51836;SDS011;38941;53.254;6.600;2023-03-03T02:18:26;10.85;;;4.32;;
51836;SDS011;38941;53.254;6.600;2023-03-03T02:20:33;11.05;;;4.38;;
51836;SDS011;38941;53.254;6.600;2023-03-03T02:23:00;7.22;;;3.78;;
51836;SDS011;38941;53.254;6.600;2023-03-03T02:25:07;7.05;;;3.42;;
51836;SDS011;38941;53.254;6.600;2023-03-03T02:27:17;7.68;;;3.85;;
51836;SDS011;38941;53.254;6.600;2023-03-03T02:29:17;6.93;;;3.50;;
51836;SDS011;38941;53.254;6.600;2023-03-03T02:31:21;6.03;;;3.42;;
51836;SDS011;38941;53.254;6.600;2023-03-03T02:33:24;6.63;;;3.47;;
51836;SDS011;38941;53.254;6.600;2023-03-03T02:37:29;5.75;;;3.33;;
51836;SDS011;38941;53.254;6.600;2023-03-03T02:39:30;6.53;;;3.80;;
51836;SDS011;38941;53.254;6.600;2023-03-03T02:45:49;9.38;;;3.72;;
51836;SDS011;38941;53.254;6.600;2023-03-03T02:47:50;5.47;;;3.35;;
51836;SDS011;38941;53.254;6.600;2023-03-03T02:49:51;7.45;;;4.15;;
51836;SDS011;38941;53.254;6.600;2023-03-03T02:51:52;7.65;;;3.90;;
51836;SDS011;38941;53.254;6.600;2023-03-03T02:53:54;8.82;;;4.75;;
51836;SDS011;38941;53.254;6.600;2023-03-03T02:55:55;6.30;;;3.63;;
51836;SDS011;38941;53.254;6.600;2023-03-03T02:57:56;7.70;;;3.67;;
51836;SDS011;38941;53.254;6.600;2023-03-03T02:59:57;7.80;;;3.67;;
51836;SDS011;38941;53.254;6.600;2023-03-03T03:01:59;9.63;;;3.72;;
51836;SDS011;38941;53.254;6.600;2023-03-03T03:04:04;7.00;;;3.40;;
51836;SDS011;38941;53.254;6.600;2023-03-03T03:06:10;6.15;;;3.65;;
51836;SDS011;38941;53.254;6.600;2023-03-03T03:08:11;6.90;;;3.78;;
51836;SDS011;38941;53.254;6.600;2023-03-03T03:10:12;7.32;;;3.97;;
51836;SDS011;38941;53.254;6.600;2023-03-03T03:12:13;7.53;;;3.92;;
51836;SDS011;38941;53.254;6.600;2023-03-03T03:14:16;6.88;;;4.03;;
51836;SDS011;38941;53.254;6.600;2023-03-03T03:16:17;10.70;;;4.47;;
51836;SDS011;38941;53.254;6.600;2023-03-03T03:18:18;6.93;;;3.75;;
51836;SDS011;38941;53.254;6.600;2023-03-03T03:20:19;9.38;;;4.05;;
51836;SDS011;38941;53.254;6.600;2023-03-03T03:22:20;9.68;;;4.03;;
51836;SDS011;38941;53.254;6.600;2023-03-03T03:24:21;7.30;;;3.78;;
51836;SDS011;38941;53.254;6.600;2023-03-03T03:26:22;6.93;;;3.90;;
51836;SDS011;38941;53.254;6.600;2023-03-03T03:28:23;6.68;;;3.42;;
51836;SDS011;38941;53.254;6.600;2023-03-03T03:30:24;7.38;;;3.92;;
51836;SDS011;38941;53.254;6.600;2023-03-03T03:32:25;8.68;;;4.35;;
51836;SDS011;38941;53.254;6.600;2023-03-03T03:34:30;9.35;;;3.75;;
51836;SDS011;38941;53.254;6.600;2023-03-03T03:36:31;7.50;;;3.72;;
51836;SDS011;38941;53.254;6.600;2023-03-03T03:38:33;7.03;;;3.50;;
51836;SDS011;38941;53.254;6.600;2023-03-03T03:40:36;7.25;;;3.25;;
51836;SDS011;38941;53.254;6.600;2023-03-03T03:42:38;7.93;;;3.40;;
51836;SDS011;38941;53.254;6.600;2023-03-03T03:44:40;8.35;;;2.90;;
51836;SDS011;38941;53.254;6.600;2023-03-03T03:46:41;8.38;;;3.55;;
51836;SDS011;38941;53.254;6.600;2023-03-03T03:48:43;9.55;;;3.88;;
51836;SDS011;38941;53.254;6.600;2023-03-03T03:50:47;7.35;;;3.78;;
51836;SDS011;38941;53.254;6.600;2023-03-03T03:52:50;7.63;;;3.58;;
51836;SDS011;38941;53.254;6.600;2023-03-03T03:54:52;9.02;;;3.80;;
51836;SDS011;38941;53.254;6.600;2023-03-03T03:56:53;8.00;;;4.13;;
51836;SDS011;38941;53.254;6.600;2023-03-03T03:58:54;6.70;;;3.63;;
51836;SDS011;38941;53.254;6.600;2023-03-03T04:01:00;9.10;;;4.40;;
51836;SDS011;38941;53.254;6.600;2023-03-03T04:03:04;8.88;;;4.57;;
51836;SDS011;38941;53.254;6.600;2023-03-03T04:05:05;9.15;;;4.15;;
51836;SDS011;38941;53.254;6.600;2023-03-03T04:07:07;7.85;;;3.20;;
51836;SDS011;38941;53.254;6.600;2023-03-03T04:09:09;10.00;;;3.90;;
51836;SDS011;38941;53.254;6.600;2023-03-03T04:11:12;5.13;;;2.90;;
51836;SDS011;38941;53.254;6.600;2023-03-03T04:13:18;8.05;;;3.72;;
51836;SDS011;38941;53.254;6.600;2023-03-03T04:15:25;10.02;;;3.50;;
51836;SDS011;38941;53.254;6.600;2023-03-03T04:17:26;7.00;;;3.58;;
51836;SDS011;38941;53.254;6.600;2023-03-03T04:19:27;8.23;;;4.47;;
51836;SDS011;38941;53.254;6.600;2023-03-03T04:21:28;6.95;;;3.25;;
51836;SDS011;38941;53.254;6.600;2023-03-03T04:23:30;7.45;;;4.00;;
51836;SDS011;38941;53.254;6.600;2023-03-03T04:25:31;9.38;;;3.97;;
51836;SDS011;38941;53.254;6.600;2023-03-03T04:27:33;8.45;;;4.25;;
51836;SDS011;38941;53.254;6.600;2023-03-03T04:29:35;8.32;;;3.47;;
51836;SDS011;38941;53.254;6.600;2023-03-03T04:31:36;11.40;;;3.72;;
51836;SDS011;38941;53.254;6.600;2023-03-03T04:33:37;7.22;;;3.72;;
51836;SDS011;38941;53.254;6.600;2023-03-03T04:35:38;10.30;;;3.70;;
51836;SDS011;38941;53.254;6.600;2023-03-03T04:37:40;5.90;;;3.08;;
51836;SDS011;38941;53.254;6.600;2023-03-03T04:39:41;7.13;;;3.40;;
51836;SDS011;38941;53.254;6.600;2023-03-03T04:41:43;6.65;;;3.42;;
51836;SDS011;38941;53.254;6.600;2023-03-03T04:43:45;6.05;;;3.65;;
51836;SDS011;38941;53.254;6.600;2023-03-03T04:45:47;6.70;;;3.20;;
51836;SDS011;38941;53.254;6.600;2023-03-03T04:47:49;6.03;;;3.33;;
51836;SDS011;38941;53.254;6.600;2023-03-03T04:49:51;5.13;;;2.70;;
51836;SDS011;38941;53.254;6.600;2023-03-03T04:51:53;6.43;;;3.60;;
51836;SDS011;38941;53.254;6.600;2023-03-03T04:53:55;6.07;;;3.53;;
51836;SDS011;38941;53.254;6.600;2023-03-03T04:55:57;6.40;;;3.30;;
51836;SDS011;38941;53.254;6.600;2023-03-03T04:57:59;7.03;;;3.28;;
51836;SDS011;38941;53.254;6.600;2023-03-03T05:00:00;6.65;;;3.40;;
51836;SDS011;38941;53.254;6.600;2023-03-03T05:02:02;7.68;;;3.30;;
51836;SDS011;38941;53.254;6.600;2023-03-03T05:04:04;7.13;;;3.17;;
51836;SDS011;38941;53.254;6.600;2023-03-03T05:06:06;6.22;;;2.97;;
51836;SDS011;38941;53.254;6.600;2023-03-03T05:08:09;5.78;;;3.20;;
51836;SDS011;38941;53.254;6.600;2023-03-03T05:10:10;6.88;;;3.83;;
51836;SDS011;38941;53.254;6.600;2023-03-03T05:12:11;9.95;;;3.78;;
51836;SDS011;38941;53.254;6.600;2023-03-03T05:14:12;7.88;;;2.90;;
51836;SDS011;38941;53.254;6.600;2023-03-03T05:16:14;8.80;;;3.63;;
51836;SDS011;38941;53.254;6.600;2023-03-03T05:18:17;7.68;;;3.13;;
51836;SDS011;38941;53.254;6.600;2023-03-03T05:20:21;9.13;;;3.47;;
51836;SDS011;38941;53.254;6.600;2023-03-03T05:22:22;7.65;;;3.55;;
51836;SDS011;38941;53.254;6.600;2023-03-03T05:24:23;9.38;;;3.42;;
51836;SDS011;38941;53.254;6.600;2023-03-03T05:26:25;9.35;;;4.03;;
51836;SDS011;38941;53.254;6.600;2023-03-03T05:28:27;6.47;;;2.85;;
51836;SDS011;38941;53.254;6.600;2023-03-03T05:30:28;5.40;;;2.95;;
51836;SDS011;38941;53.254;6.600;2023-03-03T05:32:29;6.63;;;3.65;;
51836;SDS011;38941;53.254;6.600;2023-03-03T05:34:31;11.35;;;3.17;;
51836;SDS011;38941;53.254;6.600;2023-03-03T05:36:33;5.70;;;3.10;;
51836;SDS011;38941;53.254;6.600;2023-03-03T05:38:34;8.50;;;3.35;;
51836;SDS011;38941;53.254;6.600;2023-03-03T05:40:36;7.65;;;3.40;;
51836;SDS011;38941;53.254;6.600;2023-03-03T05:42:38;9.35;;;3.22;;
51836;SDS011;38941;53.254;6.600;2023-03-03T05:44:41;5.53;;;3.22;;
51836;SDS011;38941;53.254;6.600;2023-03-03T05:46:42;8.07;;;3.42;;
51836;SDS011;38941;53.254;6.600;2023-03-03T05:48:44;6.57;;;3.17;;
51836;SDS011;38941;53.254;6.600;2023-03-03T05:50:47;6.05;;;3.50;;
51836;SDS011;38941;53.254;6.600;2023-03-03T05:52:49;7.63;;;3.70;;
51836;SDS011;38941;53.254;6.600;2023-03-03T05:54:53;9.18;;;3.58;;
51836;SDS011;38941;53.254;6.600;2023-03-03T05:56:53;11.77;;;3.58;;
51836;SDS011;38941;53.254;6.600;2023-03-03T05:58:56;7.45;;;3.95;;
51836;SDS011;38941;53.254;6.600;2023-03-03T06:00:58;5.90;;;3.17;;
51836;SDS011;38941;53.254;6.600;2023-03-03T06:02:58;8.02;;;3.50;;
51836;SDS011;38941;53.254;6.600;2023-03-03T06:05:00;8.57;;;4.60;;
51836;SDS011;38941;53.254;6.600;2023-03-03T06:07:01;9.07;;;3.33;;
51836;SDS011;38941;53.254;6.600;2023-03-03T06:09:03;7.40;;;3.67;;
51836;SDS011;38941;53.254;6.600;2023-03-03T06:11:04;6.70;;;3.65;;
51836;SDS011;38941;53.254;6.600;2023-03-03T06:13:05;7.22;;;3.65;;
51836;SDS011;38941;53.254;6.600;2023-03-03T06:15:07;10.18;;;3.55;;
51836;SDS011;38941;53.254;6.600;2023-03-03T06:17:10;8.80;;;3.50;;
51836;SDS011;38941;53.254;6.600;2023-03-03T06:19:12;7.88;;;3.20;;
51836;SDS011;38941;53.254;6.600;2023-03-03T06:21:13;8.77;;;4.05;;
51836;SDS011;38941;53.254;6.600;2023-03-03T06:23:14;8.70;;;4.18;;
51836;SDS011;38941;53.254;6.600;2023-03-03T06:25:15;8.25;;;3.63;;
51836;SDS011;38941;53.254;6.600;2023-03-03T06:27:17;9.63;;;3.97;;
51836;SDS011;38941;53.254;6.600;2023-03-03T06:29:19;6.53;;;3.20;;
51836;SDS011;38941;53.254;6.600;2023-03-03T06:31:20;9.18;;;3.45;;
51836;SDS011;38941;53.254;6.600;2023-03-03T06:33:22;10.45;;;3.80;;
51836;SDS011;38941;53.254;6.600;2023-03-03T06:35:23;8.48;;;4.30;;
51836;SDS011;38941;53.254;6.600;2023-03-03T06:37:24;8.15;;;3.90;;
51836;SDS011;38941;53.254;6.600;2023-03-03T06:39:24;7.28;;;3.47;;
51836;SDS011;38941;53.254;6.600;2023-03-03T06:41:25;12.77;;;4.50;;
51836;SDS011;38941;53.254;6.600;2023-03-03T06:43:26;7.93;;;3.95;;
51836;SDS011;38941;53.254;6.600;2023-03-03T06:45:33;8.10;;;3.85;;
51836;SDS011;38941;53.254;6.600;2023-03-03T06:47:35;8.48;;;4.13;;
51836;SDS011;38941;53.254;6.600;2023-03-03T06:49:36;6.60;;;3.38;;
51836;SDS011;38941;53.254;6.600;2023-03-03T06:51:38;10.27;;;4.25;;
51836;SDS011;38941;53.254;6.600;2023-03-03T06:53:39;7.63;;;3.60;;
51836;SDS011;38941;53.254;6.600;2023-03-03T06:55:41;11.90;;;3.75;;
51836;SDS011;38941;53.254;6.600;2023-03-03T06:57:44;10.65;;;4.25;;
51836;SDS011;38941;53.254;6.600;2023-03-03T06:59:46;7.70;;;3.70;;
51836;SDS011;38941;53.254;6.600;2023-03-03T07:01:50;8.68;;;3.85;;
51836;SDS011;38941;53.254;6.600;2023-03-03T07:03:55;9.02;;;4.00;;
51836;SDS011;38941;53.254;6.600;2023-03-03T07:05:56;9.52;;;4.18;;
51836;SDS011;38941;53.254;6.600;2023-03-03T07:07:58;9.07;;;4.28;;
51836;SDS011;38941;53.254;6.600;2023-03-03T07:10:00;18.63;;;4.50;;
51836;SDS011;38941;53.254;6.600;2023-03-03T07:12:12;10.80;;;3.60;;
51836;SDS011;38941;53.254;6.600;2023-03-03T07:14:17;8.27;;;5.05;;
51836;SDS011;38941;53.254;6.600;2023-03-03T07:16:23;10.38;;;5.05;;
51836;SDS011;38941;53.254;6.600;2023-03-03T07:18:39;8.60;;;4.18;;
51836;SDS011;38941;53.254;6.600;2023-03-03T07:20:44;7.72;;;3.92;;
51836;SDS011;38941;53.254;6.600;2023-03-03T07:22:46;8.27;;;3.65;;
51836;SDS011;38941;53.254;6.600;2023-03-03T07:24:48;9.60;;;4.63;;
51836;SDS011;38941;53.254;6.600;2023-03-03T07:27:16;7.97;;;3.95;;
51836;SDS011;38941;53.254;6.600;2023-03-03T07:29:26;12.27;;;3.80;;
51836;SDS011;38941;53.254;6.600;2023-03-03T07:33:37;7.47;;;3.45;;
51836;SDS011;38941;53.254;6.600;2023-03-03T07:35:44;8.18;;;4.18;;
51836;SDS011;38941;53.254;6.600;2023-03-03T07:37:46;12.85;;;5.07;;
51836;SDS011;38941;53.254;6.600;2023-03-03T07:39:47;10.68;;;4.10;;
51836;SDS011;38941;53.254;6.600;2023-03-03T07:41:49;8.52;;;4.15;;
51836;SDS011;38941;53.254;6.600;2023-03-03T07:46:01;9.57;;;3.90;;
51836;SDS011;38941;53.254;6.600;2023-03-03T07:50:13;10.30;;;4.15;;
51836;SDS011;38941;53.254;6.600;2023-03-03T07:54:39;9.65;;;4.10;;
51836;SDS011;38941;53.254;6.600;2023-03-03T07:56:51;15.05;;;5.30;;
51836;SDS011;38941;53.254;6.600;2023-03-03T07:58:55;8.43;;;4.50;;
51836;SDS011;38941;53.254;6.600;2023-03-03T08:03:29;9.75;;;4.38;;
51836;SDS011;38941;53.254;6.600;2023-03-03T08:05:41;13.45;;;4.63;;
51836;SDS011;38941;53.254;6.600;2023-03-03T08:07:42;9.32;;;4.22;;
51836;SDS011;38941;53.254;6.600;2023-03-03T08:10:00;11.40;;;5.00;;
51836;SDS011;38941;53.254;6.600;2023-03-03T08:14:24;7.82;;;4.10;;
51836;SDS011;38941;53.254;6.600;2023-03-03T08:16:37;8.83;;;3.43;;
51836;SDS011;38941;53.254;6.600;2023-03-03T08:18:44;6.40;;;3.20;;
51836;SDS011;38941;53.254;6.600;2023-03-03T08:20:48;5.93;;;2.97;;
51836;SDS011;38941;53.254;6.600;2023-03-03T08:22:50;9.30;;;3.05;;
51836;SDS011;38941;53.254;6.600;2023-03-03T08:24:51;8.65;;;2.70;;
51836;SDS011;38941;53.254;6.600;2023-03-03T08:26:51;10.20;;;3.65;;
51836;SDS011;38941;53.254;6.600;2023-03-03T08:28:52;7.45;;;3.17;;
51836;SDS011;38941;53.254;6.600;2023-03-03T08:30:54;6.47;;;2.33;;
51836;SDS011;38941;53.254;6.600;2023-03-03T08:32:55;9.20;;;2.63;;
51836;SDS011;38941;53.254;6.600;2023-03-03T08:34:56;8.30;;;2.50;;
51836;SDS011;38941;53.254;6.600;2023-03-03T08:36:58;7.35;;;2.63;;
51836;SDS011;38941;53.254;6.600;2023-03-03T08:38:58;6.00;;;2.35;;
51836;SDS011;38941;53.254;6.600;2023-03-03T08:40:59;8.52;;;2.92;;
51836;SDS011;38941;53.254;6.600;2023-03-03T08:43:00;7.53;;;2.95;;
51836;SDS011;38941;53.254;6.600;2023-03-03T08:45:01;8.80;;;2.72;;
51836;SDS011;38941;53.254;6.600;2023-03-03T08:47:02;7.32;;;3.30;;
51836;SDS011;38941;53.254;6.600;2023-03-03T08:49:03;7.35;;;3.17;;
51836;SDS011;38941;53.254;6.600;2023-03-03T08:51:12;8.82;;;3.53;;
51836;SDS011;38941;53.254;6.600;2023-03-03T08:53:16;9.10;;;3.00;;
51836;SDS011;38941;53.254;6.600;2023-03-03T08:55:19;7.70;;;3.60;;
51836;SDS011;38941;53.254;6.600;2023-03-03T08:57:20;9.13;;;2.90;;
51836;SDS011;38941;53.254;6.600;2023-03-03T08:59:21;11.38;;;2.72;;
51836;SDS011;38941;53.254;6.600;2023-03-03T09:01:23;6.28;;;3.20;;
51836;SDS011;38941;53.254;6.600;2023-03-03T09:03:24;6.03;;;2.78;;
51836;SDS011;38941;53.254;6.600;2023-03-03T09:05:25;7.60;;;2.80;;
51836;SDS011;38941;53.254;6.600;2023-03-03T09:07:26;3.95;;;2.20;;
51836;SDS011;38941;53.254;6.600;2023-03-03T09:09:27;4.55;;;2.00;;
51836;SDS011;38941;53.254;6.600;2023-03-03T09:11:28;6.72;;;2.40;;
51836;SDS011;38941;53.254;6.600;2023-03-03T09:13:30;7.35;;;2.65;;
51836;SDS011;38941;53.254;6.600;2023-03-03T09:15:33;6.72;;;2.63;;
51836;SDS011;38941;53.254;6.600;2023-03-03T09:17:35;5.75;;;2.80;;
51836;SDS011;38941;53.254;6.600;2023-03-03T09:19:36;6.45;;;3.60;;
51836;SDS011;38941;53.254;6.600;2023-03-03T09:21:38;12.20;;;3.25;;
51836;SDS011;38941;53.254;6.600;2023-03-03T09:23:41;8.68;;;2.67;;
51836;SDS011;38941;53.254;6.600;2023-03-03T09:25:44;7.55;;;2.70;;
51836;SDS011;38941;53.254;6.600;2023-03-03T09:27:46;4.28;;;2.10;;
51836;SDS011;38941;53.254;6.600;2023-03-03T09:29:46;17.77;;;3.47;;
51836;SDS011;38941;53.254;6.600;2023-03-03T09:31:48;3.88;;;1.80;;
51836;SDS011;38941;53.254;6.600;2023-03-03T09:33:54;4.45;;;2.35;;
51836;SDS011;38941;53.254;6.600;2023-03-03T09:36:23;7.78;;;2.45;;
51836;SDS011;38941;53.254;6.600;2023-03-03T09:38:26;7.93;;;2.97;;
51836;SDS011;38941;53.254;6.600;2023-03-03T09:49:57;3.60;;;1.77;;
51836;SDS011;38941;53.254;6.600;2023-03-03T09:52:59;8.00;;;2.25;;
51836;SDS011;38941;53.254;6.600;2023-03-03T09:57:24;6.18;;;1.60;;
51836;SDS011;38941;53.254;6.600;2023-03-03T09:59:58;3.47;;;1.40;;
51836;SDS011;38941;53.254;6.600;2023-03-03T10:19:02;5.95;;;2.20;;
51836;SDS011;38941;53.254;6.600;2023-03-03T10:30:10;2.78;;;0.98;;
51836;SDS011;38941;53.254;6.600;2023-03-03T10:32:45;3.42;;;1.15;;
51836;SDS011;38941;53.254;6.600;2023-03-03T10:40:02;2.20;;;0.70;;
51836;SDS011;38941;53.254;6.600;2023-03-03T10:42:20;4.32;;;0.70;;
51836;SDS011;38941;53.254;6.600;2023-03-03T10:49:26;5.78;;;0.80;;
51836;SDS011;38941;53.254;6.600;2023-03-03T10:51:50;7.53;;;0.95;;
51836;SDS011;38941;53.254;6.600;2023-03-03T11:01:14;1.90;;;0.40;;
51836;SDS011;38941;53.254;6.600;2023-03-03T11:05:57;3.58;;;0.70;;
51836;SDS011;38941;53.254;6.600;2023-03-03T11:08:11;4.55;;;0.98;;
51836;SDS011;38941;53.254;6.600;2023-03-03T11:10:24;2.50;;;0.65;;
51836;SDS011;38941;53.254;6.600;2023-03-03T11:12:32;3.85;;;0.50;;
51836;SDS011;38941;53.254;6.600;2023-03-03T11:14:46;0.55;;;0.40;;
51836;SDS011;38941;53.254;6.600;2023-03-03T11:26:32;0.95;;;0.50;;
51836;SDS011;38941;53.254;6.600;2023-03-03T11:31:09;2.90;;;0.50;;
51836;SDS011;38941;53.254;6.600;2023-03-03T11:33:22;4.70;;;0.65;;
51836;SDS011;38941;53.254;6.600;2023-03-03T11:35:34;4.32;;;0.50;;
51836;SDS011;38941;53.254;6.600;2023-03-03T11:38:01;11.77;;;1.25;;
51836;SDS011;38941;53.254;6.600;2023-03-03T11:40:26;4.78;;;0.55;;
51836;SDS011;38941;53.254;6.600;2023-03-03T11:42:34;7.15;;;0.75;;
51836;SDS011;38941;53.254;6.600;2023-03-03T11:44:51;9.02;;;1.08;;
51836;SDS011;38941;53.254;6.600;2023-03-03T11:47:01;2.70;;;0.60;;
51836;SDS011;38941;53.254;6.600;2023-03-03T11:49:04;3.92;;;0.73;;
51836;SDS011;38941;53.254;6.600;2023-03-03T11:51:14;5.32;;;0.77;;
51836;SDS011;38941;53.254;6.600;2023-03-03T11:53:25;1.30;;;0.30;;
51836;SDS011;38941;53.254;6.600;2023-03-03T11:55:44;3.97;;;0.60;;
51836;SDS011;38941;53.254;6.600;2023-03-03T11:57:53;2.25;;;0.50;;
51836;SDS011;38941;53.254;6.600;2023-03-03T12:00:23;3.78;;;0.85;;
51836;SDS011;38941;53.254;6.600;2023-03-03T12:04:47;3.40;;;0.65;;
51836;SDS011;38941;53.254;6.600;2023-03-03T12:09:26;4.28;;;0.82;;
51836;SDS011;38941;53.254;6.600;2023-03-03T12:11:46;6.75;;;0.75;;
51836;SDS011;38941;53.254;6.600;2023-03-03T12:15:55;5.57;;;0.80;;
51836;SDS011;38941;53.254;6.600;2023-03-03T12:22:56;6.32;;;1.60;;
51836;SDS011;38941;53.254;6.600;2023-03-03T12:31:43;9.43;;;0.82;;
51836;SDS011;38941;53.254;6.600;2023-03-03T12:38:55;5.18;;;1.00;;
51836;SDS011;38941;53.254;6.600;2023-03-03T12:50:34;7.53;;;1.17;;
51836;SDS011;38941;53.254;6.600;2023-03-03T12:53:04;5.15;;;1.10;;
51836;SDS011;38941;53.254;6.600;2023-03-03T12:57:52;11.77;;;1.58;;
51836;SDS011;38941;53.254;6.600;2023-03-03T13:00:14;11.13;;;1.83;;
51836;SDS011;38941;53.254;6.600;2023-03-03T13:02:34;12.20;;;1.53;;
51836;SDS011;38941;53.254;6.600;2023-03-03T13:04:46;8.75;;;1.30;;
51836;SDS011;38941;53.254;6.600;2023-03-03T13:07:14;10.80;;;1.27;;
51836;SDS011;38941;53.254;6.600;2023-03-03T13:11:59;21.83;;;2.75;;
51836;SDS011;38941;53.254;6.600;2023-03-03T13:16:26;9.35;;;1.65;;
51836;SDS011;38941;53.254;6.600;2023-03-03T13:20:49;11.43;;;1.65;;
51836;SDS011;38941;53.254;6.600;2023-03-03T13:27:49;8.60;;;1.20;;
51836;SDS011;38941;53.254;6.600;2023-03-03T13:29:57;14.10;;;1.73;;
51836;SDS011;38941;53.254;6.600;2023-03-03T13:32:20;10.43;;;1.60;;
51836;SDS011;38941;53.254;6.600;2023-03-03T13:36:56;8.30;;;2.17;;
51836;SDS011;38941;53.254;6.600;2023-03-03T13:39:20;19.55;;;1.75;;
51836;SDS011;38941;53.254;6.600;2023-03-03T13:41:43;12.73;;;1.80;;
51836;SDS011;38941;53.254;6.600;2023-03-03T13:50:50;12.45;;;1.95;;
51836;SDS011;38941;53.254;6.600;2023-03-03T13:55:30;16.42;;;2.25;;
51836;SDS011;38941;53.254;6.600;2023-03-03T14:02:46;11.95;;;1.70;;
51836;SDS011;38941;53.254;6.600;2023-03-03T14:05:16;10.95;;;1.70;;
51836;SDS011;38941;53.254;6.600;2023-03-03T14:07:29;15.27;;;2.38;;
51836;SDS011;38941;53.254;6.600;2023-03-03T14:09:42;9.30;;;2.17;;
51836;SDS011;38941;53.254;6.600;2023-03-03T14:17:06;12.02;;;1.67;;
51836;SDS011;38941;53.254;6.600;2023-03-03T14:19:16;12.13;;;2.05;;
51836;SDS011;38941;53.254;6.600;2023-03-03T14:21:34;19.40;;;2.38;;
51836;SDS011;38941;53.254;6.600;2023-03-03T14:23:58;10.93;;;1.98;;
51836;SDS011;38941;53.254;6.600;2023-03-03T14:26:07;12.93;;;2.97;;
51836;SDS011;38941;53.254;6.600;2023-03-03T14:28:11;11.13;;;2.17;;
51836;SDS011;38941;53.254;6.600;2023-03-03T14:30:46;17.35;;;2.80;;
51836;SDS011;38941;53.254;6.600;2023-03-03T14:32:41;17.35;;;2.03;;
51836;SDS011;38941;53.254;6.600;2023-03-03T14:34:41;15.55;;;2.85;;
51836;SDS011;38941;53.254;6.600;2023-03-03T14:36:42;17.98;;;2.80;;
51836;SDS011;38941;53.254;6.600;2023-03-03T14:38:44;14.57;;;2.35;;
51836;SDS011;38941;53.254;6.600;2023-03-03T14:40:47;23.45;;;2.88;;
51836;SDS011;38941;53.254;6.600;2023-03-03T14:44:54;19.15;;;2.15;;
51836;SDS011;38941;53.254;6.600;2023-03-03T14:47:19;19.65;;;3.03;;
51836;SDS011;38941;53.254;6.600;2023-03-03T14:49:33;15.80;;;2.17;;
51836;SDS011;38941;53.254;6.600;2023-03-03T14:53:43;20.65;;;1.90;;
51836;SDS011;38941;53.254;6.600;2023-03-03T14:55:50;15.55;;;2.15;;
51836;SDS011;38941;53.254;6.600;2023-03-03T14:57:52;10.65;;;2.08;;
51836;SDS011;38941;53.254;6.600;2023-03-03T15:10:38;10.57;;;2.40;;
51836;SDS011;38941;53.254;6.600;2023-03-03T15:12:42;19.65;;;3.55;;
51836;SDS011;38941;53.254;6.600;2023-03-03T15:14:44;26.17;;;3.10;;
51836;SDS011;38941;53.254;6.600;2023-03-03T15:16:47;10.98;;;2.70;;
51836;SDS011;38941;53.254;6.600;2023-03-03T15:21:03;12.30;;;1.98;;
51836;SDS011;38941;53.254;6.600;2023-03-03T15:25:31;13.82;;;2.00;;
51836;SDS011;38941;53.254;6.600;2023-03-03T15:27:43;11.55;;;1.98;;
51836;SDS011;38941;53.254;6.600;2023-03-03T15:29:58;14.15;;;2.13;;
51836;SDS011;38941;53.254;6.600;2023-03-03T15:32:19;20.80;;;1.95;;
51836;SDS011;38941;53.254;6.600;2023-03-03T15:50:44;25.67;;;3.20;;
51836;SDS011;38941;53.254;6.600;2023-03-03T15:53:11;17.63;;;2.25;;
51836;SDS011;38941;53.254;6.600;2023-03-03T15:55:37;17.70;;;2.72;;
51836;SDS011;38941;53.254;6.600;2023-03-03T16:02:34;16.20;;;2.80;;